createdAt,value
2018-08-27T00:00:29.122Z,94468.23
2018-08-27T00:02:55.488Z,94468.98
2018-08-27T00:05:21.804Z,94471.35
2018-08-27T00:07:48.139Z,94468.45
2018-08-27T00:10:14.474Z,94465.00
2018-08-27T00:12:40.792Z,94468.58
2018-08-27T00:15:07.162Z,94467.39
2018-08-27T00:17:33.505Z,94467.23
2018-08-27T00:19:59.897Z,94461.53
2018-08-27T00:22:26.351Z,94461.94
2018-08-27T00:24:52.691Z,94462.00
2018-08-27T00:27:19.081Z,94465.63
2018-08-27T00:29:45.412Z,94464.02
2018-08-27T00:32:11.820Z,94457.59
2018-08-27T00:34:38.169Z,94460.93
2018-08-27T00:37:04.566Z,94463.77
2018-08-27T00:39:30.913Z,94461.56
2018-08-27T00:41:57.279Z,94464.74
2018-08-27T00:44:23.652Z,94463.86
2018-08-27T00:46:49.975Z,94464.20
2018-08-27T00:49:16.355Z,94457.41
2018-08-27T00:51:42.673Z,94461.53
2018-08-27T00:54:09.016Z,94459.80
2018-08-27T00:56:35.415Z,94459.33
2018-08-27T00:59:01.805Z,94459.73
2018-08-27T01:01:28.129Z,94461.81
2018-08-27T01:03:54.525Z,94458.60
2018-08-27T01:06:20.857Z,94454.61
2018-08-27T01:08:47.197Z,94447.05
2018-08-27T01:11:13.691Z,94445.22
2018-08-27T01:13:40.064Z,94444.19
2018-08-27T01:16:06.411Z,94443.08
2018-08-27T01:18:32.751Z,94439.14
2018-08-27T01:20:59.074Z,94446.67
2018-08-27T01:23:25.477Z,94446.53
2018-08-27T01:25:51.918Z,94446.50
2018-08-27T01:28:18.255Z,94445.59
2018-08-27T01:30:44.607Z,94438.25
2018-08-27T01:33:11.776Z,94439.50
2018-08-27T01:35:38.173Z,94439.05
2018-08-27T01:38:04.561Z,94439.87
2018-08-27T01:40:30.897Z,94434.41
2018-08-27T01:42:57.250Z,94431.72
2018-08-27T01:45:23.593Z,94433.39
2018-08-27T01:47:49.926Z,94440.19
2018-08-27T01:50:16.354Z,94435.91
2018-08-27T01:52:42.723Z,94439.05
2018-08-27T01:55:09.112Z,94442.95
2018-08-27T01:57:35.442Z,94441.35
2018-08-27T02:00:01.805Z,94446.31
2018-08-27T02:02:28.204Z,94436.39
2018-08-27T02:04:54.570Z,94435.97
2018-08-27T02:07:20.895Z,94441.25
2018-08-27T02:09:47.265Z,94439.10
2018-08-27T02:12:13.603Z,94433.20
2018-08-27T02:14:39.994Z,94432.13
2018-08-27T02:17:06.322Z,94432.38
2018-08-27T02:19:32.651Z,94435.42
2018-08-27T02:21:58.984Z,94431.96
2018-08-27T02:24:25.336Z,94432.56
2018-08-27T02:26:51.754Z,94438.54
2018-08-27T02:29:18.263Z,94437.06
2018-08-27T02:31:44.695Z,94431.90
2018-08-27T02:34:11.035Z,94432.30
2018-08-27T02:36:37.403Z,94433.25
2018-08-27T02:39:03.732Z,94429.61
2018-08-27T02:41:30.102Z,94433.34
2018-08-27T02:43:56.440Z,94426.35
2018-08-27T02:46:22.932Z,94428.99
2018-08-27T02:48:49.262Z,94429.66
2018-08-27T02:51:15.634Z,94433.00
2018-08-27T02:53:41.993Z,94429.34
2018-08-27T02:56:08.383Z,94432.85
2018-08-27T02:58:34.714Z,94430.88
2018-08-27T03:01:01.044Z,94432.26
2018-08-27T03:03:27.411Z,94433.06
2018-08-27T03:05:53.730Z,94434.55
2018-08-27T03:08:20.108Z,94442.50
2018-08-27T03:10:46.463Z,94445.89
2018-08-27T03:13:12.836Z,94445.82
2018-08-27T03:15:39.167Z,94447.98
2018-08-27T03:18:05.491Z,94448.61
2018-08-27T03:20:31.852Z,94457.21
2018-08-27T03:22:58.177Z,94459.05
2018-08-27T03:25:24.550Z,94453.75
2018-08-27T03:27:50.886Z,94455.05
2018-08-27T03:30:17.211Z,94456.88
2018-08-27T03:32:43.542Z,94467.77
2018-08-27T03:35:09.874Z,94463.22
2018-08-27T03:37:36.264Z,94468.04
2018-08-27T03:40:02.631Z,94475.37
2018-08-27T03:42:29.005Z,94476.14
2018-08-27T03:44:55.323Z,94483.15
2018-08-27T03:47:21.737Z,94491.77
2018-08-27T03:49:48.129Z,94496.39
2018-08-27T03:52:14.824Z,94491.98
2018-08-27T03:54:41.205Z,94494.76
2018-08-27T03:57:07.596Z,94496.71
2018-08-27T03:59:33.936Z,94495.89
2018-08-27T04:02:00.258Z,94506.47
2018-08-27T04:04:26.597Z,94511.31
2018-08-27T04:06:52.980Z,94507.44
2018-08-27T04:09:19.337Z,94512.25
2018-08-27T04:11:45.742Z,94511.88
2018-08-27T04:14:12.072Z,94513.54
2018-08-27T04:16:38.401Z,94506.88
2018-08-27T04:19:04.743Z,94515.33
2018-08-27T04:21:31.111Z,94512.38
2018-08-27T04:23:57.447Z,94509.93
2018-08-27T04:26:23.854Z,94515.28
2018-08-27T04:28:50.344Z,94512.23
2018-08-27T04:31:16.624Z,94513.17
2018-08-27T04:33:42.998Z,94513.39
2018-08-27T04:36:09.361Z,94512.92
2018-08-27T04:38:35.728Z,94510.34
2018-08-27T04:41:02.054Z,94519.56
2018-08-27T04:43:28.420Z,94521.45
2018-08-27T04:45:54.778Z,94526.22
2018-08-27T04:48:21.145Z,94523.84
2018-08-27T04:50:47.563Z,94517.39
2018-08-27T04:53:13.880Z,94517.94
2018-08-27T04:55:40.239Z,94521.25
2018-08-27T04:58:06.582Z,94527.29
2018-08-27T05:00:32.963Z,94534.09
2018-08-27T05:02:59.367Z,94533.67
2018-08-27T05:05:25.722Z,94534.97
2018-08-27T05:07:52.067Z,94534.22
2018-08-27T05:10:18.393Z,94535.16
2018-08-27T05:12:44.814Z,94539.39
2018-08-27T05:15:11.454Z,94540.27
2018-08-27T05:17:37.807Z,94543.25
2018-08-27T05:20:04.172Z,94547.59
2018-08-27T05:22:30.498Z,94545.20
2018-08-27T05:24:56.875Z,94538.97
2018-08-27T05:27:23.216Z,94545.97
2018-08-27T05:29:49.568Z,94542.77
2018-08-27T05:32:15.911Z,94539.86
2018-08-27T05:34:42.255Z,94540.81
2018-08-27T05:37:08.700Z,94551.92
2018-08-27T05:39:35.037Z,94539.91
2018-08-27T05:42:01.399Z,94541.61
2018-08-27T05:44:27.831Z,94534.34
2018-08-27T05:46:54.166Z,94532.17
2018-08-27T05:49:20.506Z,94532.99
2018-08-27T05:51:46.843Z,94531.21
2018-08-27T05:54:13.227Z,94529.25
2018-08-27T05:56:39.568Z,94529.57
2018-08-27T05:59:05.932Z,94531.56
2018-08-27T06:01:32.373Z,94532.03
2018-08-27T06:03:58.721Z,94538.19
2018-08-27T06:06:25.059Z,94539.38
2018-08-27T06:08:51.382Z,94537.28
2018-08-27T06:11:17.806Z,94545.31
2018-08-27T06:13:44.101Z,94554.84
2018-08-27T06:16:10.531Z,94558.68
2018-08-27T06:18:36.818Z,94555.41
2018-08-27T06:21:03.196Z,94568.80
2018-08-27T06:23:29.628Z,94565.18
2018-08-27T06:25:55.958Z,94567.36
2018-08-27T06:28:22.334Z,94568.08
2018-08-27T06:30:48.825Z,94570.25
2018-08-27T06:33:15.358Z,94562.62
2018-08-27T06:35:41.859Z,94568.80
2018-08-27T06:38:08.317Z,94574.38
2018-08-27T06:40:34.714Z,94575.86
2018-08-27T06:43:01.050Z,94583.45
2018-08-27T06:45:27.420Z,94583.17
2018-08-27T06:47:53.801Z,94586.67
2018-08-27T06:50:20.174Z,94589.50
2018-08-27T06:52:46.891Z,94591.93
2018-08-27T06:55:13.245Z,94589.75
2018-08-27T06:57:39.796Z,94595.80
2018-08-27T07:00:06.533Z,94590.70
2018-08-27T07:02:33.649Z,94603.46
2018-08-27T07:05:00.018Z,94602.10
2018-08-27T07:07:26.375Z,94600.88
2018-08-27T07:09:52.775Z,94599.55
2018-08-27T07:12:19.186Z,94599.48
2018-08-27T07:14:45.528Z,94603.87
2018-08-27T07:17:11.866Z,94605.94
2018-08-27T07:19:38.402Z,94611.10
2018-08-27T07:22:04.768Z,94610.57
2018-08-27T07:24:31.267Z,94613.34
2018-08-27T07:26:57.614Z,94609.58
2018-08-27T07:29:24.000Z,94609.89
2018-08-27T07:31:50.328Z,94607.36
2018-08-27T07:34:16.725Z,94611.87
2018-08-27T07:36:43.224Z,94619.70
2018-08-27T07:39:09.590Z,94613.64
2018-08-27T07:41:35.915Z,94621.19
2018-08-27T07:44:02.256Z,94619.23
2018-08-27T07:46:28.584Z,94621.70
2018-08-27T07:48:55.009Z,94618.84
2018-08-27T07:51:21.392Z,94619.66
2018-08-27T07:53:47.703Z,94617.77
2018-08-27T07:56:14.111Z,94623.59
2018-08-27T07:58:40.481Z,94627.08
2018-08-27T08:01:06.832Z,94628.89
2018-08-27T08:03:33.159Z,94630.77
2018-08-27T08:05:59.495Z,94627.08
2018-08-27T08:08:25.893Z,94629.72
2018-08-27T08:10:52.249Z,94628.19
2018-08-27T08:13:18.590Z,94623.36
2018-08-27T08:15:45.028Z,94623.73
2018-08-27T08:18:11.403Z,94629.42
2018-08-27T08:20:37.748Z,94628.00
2018-08-27T08:23:04.109Z,94629.15
2018-08-27T08:25:30.444Z,94628.63
2018-08-27T08:27:56.814Z,94621.31
2018-08-27T08:30:23.170Z,94624.42
2018-08-27T08:32:49.508Z,94628.31
2018-08-27T08:35:15.865Z,94628.02
2018-08-27T08:37:42.305Z,94620.86
2018-08-27T08:40:08.690Z,94627.27
2018-08-27T08:42:34.990Z,94624.13
2018-08-27T08:45:01.359Z,94624.26
2018-08-27T08:47:27.720Z,94622.54
2018-08-27T08:49:54.124Z,94623.02
2018-08-27T08:52:20.555Z,94622.84
2018-08-27T08:54:46.904Z,94624.78
2018-08-27T08:57:13.241Z,94623.72
2018-08-27T08:59:39.680Z,94630.03
2018-08-27T09:02:06.061Z,94621.45
2018-08-27T09:04:32.398Z,94629.84
2018-08-27T09:06:58.748Z,94635.50
2018-08-27T09:09:25.089Z,94629.21
2018-08-27T09:11:51.473Z,94631.62
2018-08-27T09:14:17.798Z,94631.33
2018-08-27T09:16:44.258Z,94632.09
2018-08-27T09:19:10.567Z,94634.09
2018-08-27T09:21:36.932Z,94636.14
2018-08-27T09:24:03.269Z,94639.38
2018-08-27T09:26:29.665Z,94638.62
2018-08-27T09:28:56.013Z,94633.66
2018-08-27T09:31:22.412Z,94634.67
2018-08-27T09:33:48.781Z,94632.62
2018-08-27T09:36:15.120Z,94637.08
2018-08-27T09:38:41.483Z,94640.16
2018-08-27T09:41:07.819Z,94640.92
2018-08-27T09:43:34.240Z,94642.63
2018-08-27T09:46:00.678Z,94643.45
2018-08-27T09:48:27.052Z,94641.25
2018-08-27T09:50:53.411Z,94644.91
2018-08-27T09:53:19.806Z,94650.86
2018-08-27T09:55:46.201Z,94647.95
2018-08-27T09:58:12.559Z,94654.49
2018-08-27T10:00:38.896Z,94655.21
2018-08-27T10:03:05.292Z,94648.20
2018-08-27T10:05:31.636Z,94649.25
2018-08-27T10:07:58.054Z,94649.48
2018-08-27T10:10:24.450Z,94651.37
2018-08-27T10:12:50.768Z,94647.02
2018-08-27T10:15:17.147Z,94649.06
2018-08-27T10:17:43.499Z,94652.27
2018-08-27T10:20:09.828Z,94643.02
2018-08-27T10:22:36.216Z,94643.84
2018-08-27T10:25:02.905Z,94640.36
2018-08-27T10:27:29.305Z,94637.84
2018-08-27T10:29:57.145Z,94640.84
2018-08-27T10:32:23.429Z,94635.77
2018-08-27T10:34:49.764Z,94633.59
2018-08-27T10:37:16.928Z,94638.36
2018-08-27T10:39:43.321Z,94636.48
2018-08-27T10:42:09.673Z,94641.88
2018-08-27T10:44:36.004Z,94644.77
2018-08-27T10:47:02.412Z,94660.59
2018-08-27T10:49:28.857Z,94665.25
2018-08-27T10:51:55.283Z,94662.01
2018-08-27T10:54:21.662Z,94663.13
2018-08-27T10:56:48.096Z,94672.73
2018-08-27T10:59:14.499Z,94667.53
2018-08-27T11:01:40.908Z,94664.42
2018-08-27T11:04:07.268Z,94663.42
2018-08-27T11:06:33.777Z,94671.19
2018-08-27T11:09:00.177Z,94679.38
2018-08-27T11:11:26.585Z,94681.04
2018-08-27T11:13:54.465Z,94681.97
2018-08-27T11:16:20.910Z,94689.31
2018-08-27T11:18:47.274Z,94693.45
2018-08-27T11:21:13.670Z,94689.98
2018-08-27T11:23:40.033Z,94691.09
2018-08-27T11:26:06.569Z,94687.45
2018-08-27T11:28:32.870Z,94682.63
2018-08-27T11:30:59.329Z,94679.09
2018-08-27T11:33:25.720Z,94672.95
2018-08-27T11:35:52.052Z,94659.90
2018-08-27T11:38:18.407Z,94660.03
2018-08-27T11:40:44.851Z,94655.14
2018-08-27T11:43:11.191Z,94656.72
2018-08-27T11:45:37.571Z,94666.80
2018-08-27T11:48:03.923Z,94661.38
2018-08-27T11:50:30.402Z,94661.19
2018-08-27T11:52:56.749Z,94674.20
2018-08-27T11:55:23.131Z,94665.73
2018-08-27T11:57:49.489Z,94661.21
2018-08-27T12:00:15.978Z,94665.86
2018-08-27T12:02:42.522Z,94669.14
2018-08-27T12:05:09.527Z,94666.80
2018-08-27T12:07:35.860Z,94669.68
2018-08-27T12:10:02.283Z,94679.43
2018-08-27T12:12:28.636Z,94682.02
2018-08-27T12:14:54.994Z,94682.91
2018-08-27T12:17:21.393Z,94693.91
2018-08-27T12:19:47.728Z,94694.69
2018-08-27T12:22:14.164Z,94693.39
2018-08-27T12:24:40.520Z,94697.98
2018-08-27T12:27:06.915Z,94694.56
2018-08-27T12:29:33.247Z,94691.98
2018-08-27T12:31:59.656Z,94692.81
2018-08-27T12:34:26.019Z,94691.34
2018-08-27T12:36:52.514Z,94688.16
2018-08-27T12:39:18.844Z,94693.45
2018-08-27T12:41:45.217Z,94693.97
2018-08-27T12:44:11.546Z,94697.27
2018-08-27T12:46:37.904Z,94700.62
2018-08-27T12:49:04.299Z,94695.34
2018-08-27T12:51:30.748Z,94689.98
2018-08-27T12:53:57.131Z,94686.04
2018-08-27T12:56:23.466Z,94692.20
2018-08-27T12:58:50.260Z,94690.98
2018-08-27T13:01:16.523Z,94693.33
2018-08-27T13:03:42.909Z,94690.38
2018-08-27T13:06:09.516Z,94691.68
2018-08-27T13:08:35.940Z,94693.44
2018-08-27T13:11:02.313Z,94694.22
2018-08-27T13:13:28.644Z,94687.91
2018-08-27T13:15:55.079Z,94691.85
2018-08-27T13:18:21.546Z,94693.55
2018-08-27T13:20:47.897Z,94689.24
2018-08-27T13:23:14.315Z,94698.52
2018-08-27T13:25:40.876Z,94700.53
2018-08-27T13:28:07.216Z,94703.82
2018-08-27T13:30:33.797Z,94706.22
2018-08-27T13:33:00.011Z,94711.94
2018-08-27T13:35:26.403Z,94711.28
2018-08-27T13:37:52.767Z,94709.92
2018-08-27T13:40:19.272Z,94713.05
2018-08-27T13:42:45.569Z,94716.35
2018-08-27T13:45:12.511Z,94714.23
2018-08-27T13:47:39.154Z,94707.31
2018-08-27T13:50:05.690Z,94706.41
2018-08-27T13:52:32.041Z,94708.89
2018-08-27T13:54:59.783Z,94708.76
2018-08-27T13:57:26.148Z,94710.52
2018-08-27T13:59:53.525Z,94713.87
2018-08-27T14:02:19.942Z,94714.05
2018-08-27T14:04:50.555Z,94719.05
2018-08-27T14:07:16.940Z,94716.77
2018-08-27T14:09:43.377Z,94719.99
2018-08-27T14:12:09.851Z,94722.58
2018-08-27T14:14:36.234Z,94722.39
2018-08-27T14:17:02.679Z,94722.21
2018-08-27T14:19:29.152Z,94720.53
2018-08-27T14:21:55.501Z,94717.52
2018-08-27T14:24:21.893Z,94728.92
2018-08-27T14:26:48.289Z,94734.98
2018-08-27T14:29:14.836Z,94734.81
2018-08-27T14:31:41.321Z,94739.58
2018-08-27T14:34:07.692Z,94734.66
2018-08-27T14:36:34.055Z,94739.30
2018-08-27T14:39:00.526Z,94736.83
2018-08-27T14:41:26.856Z,94744.13
2018-08-27T14:43:53.947Z,94744.94
2018-08-27T14:46:20.277Z,94740.96
2018-08-27T14:48:46.709Z,94744.13
2018-08-27T14:51:13.097Z,94738.69
2018-08-27T14:53:39.472Z,94735.41
2018-08-27T14:56:05.932Z,94728.09
2018-08-27T14:58:32.198Z,94726.83
2018-08-27T15:00:58.683Z,94707.23
2018-08-27T15:03:25.134Z,94714.42
2018-08-27T15:05:51.769Z,94713.47
2018-08-27T15:08:18.670Z,94710.30
2018-08-27T15:10:45.674Z,94717.46
2018-08-27T15:13:12.185Z,94715.08
2018-08-27T15:15:38.564Z,94718.09
2018-08-27T15:18:05.016Z,94719.21
2018-08-27T15:20:31.484Z,94725.19
2018-08-27T15:22:57.883Z,94728.53
2018-08-27T15:25:24.214Z,94733.23
2018-08-27T15:27:50.604Z,94734.74
2018-08-27T15:30:16.977Z,94733.87
2018-08-27T15:32:43.344Z,94730.22
2018-08-27T15:35:09.680Z,94729.45
2018-08-27T15:37:36.019Z,94734.89
2018-08-27T15:40:02.382Z,94730.98
2018-08-27T15:42:28.718Z,94726.28
2018-08-27T15:44:55.104Z,94724.70
2018-08-27T15:47:21.529Z,94726.63
2018-08-27T15:49:47.934Z,94730.56
2018-08-27T15:52:14.263Z,94731.52
2018-08-27T15:54:40.653Z,94733.76
2018-08-27T15:57:07.030Z,94728.11
2018-08-27T15:59:33.384Z,94718.73
2018-08-27T16:01:59.721Z,94717.56
2018-08-27T16:04:26.068Z,94712.58
2018-08-27T16:06:52.407Z,94711.41
2018-08-27T16:09:18.775Z,94717.47
2018-08-27T16:11:45.130Z,94716.03
2018-08-27T16:14:11.507Z,94719.27
2018-08-27T16:16:37.909Z,94726.80
2018-08-27T16:19:04.273Z,94731.91
2018-08-27T16:21:30.665Z,94734.84
2018-08-27T16:23:57.061Z,94745.73
2018-08-27T16:26:23.438Z,94745.44
2018-08-27T16:28:49.767Z,94751.88
2018-08-27T16:31:16.128Z,94750.90
2018-08-27T16:33:42.454Z,94756.23
2018-08-27T16:36:08.861Z,94761.88
2018-08-27T16:38:35.211Z,94762.70
2018-08-27T16:41:01.584Z,94770.39
2018-08-27T16:43:27.918Z,94777.55
2018-08-27T16:45:54.283Z,94776.20
2018-08-27T16:48:20.613Z,94779.07
2018-08-27T16:50:46.948Z,94776.36
2018-08-27T16:53:13.310Z,94777.72
2018-08-27T16:55:39.668Z,94781.66
2018-08-27T16:58:06.001Z,94784.66
2018-08-27T17:00:32.335Z,94782.00
2018-08-27T17:02:58.660Z,94791.90
2018-08-27T17:05:24.994Z,94793.86
2018-08-27T17:07:51.320Z,94794.61
2018-08-27T17:10:17.706Z,94790.98
2018-08-27T17:12:44.058Z,94798.27
2018-08-27T17:15:10.416Z,94793.04
2018-08-27T17:17:36.775Z,94797.11
2018-08-27T17:20:03.139Z,94812.44
2018-08-27T17:22:29.483Z,94808.42
2018-08-27T17:24:55.844Z,94813.51
2018-08-27T17:27:22.252Z,94811.27
2018-08-27T17:29:48.600Z,94807.55
2018-08-27T17:32:14.954Z,94806.31
2018-08-27T17:34:41.309Z,94804.55
2018-08-27T17:37:07.708Z,94812.21
2018-08-27T17:39:34.038Z,94810.55
2018-08-27T17:42:00.427Z,94807.39
2018-08-27T17:44:26.819Z,94809.44
2018-08-27T17:46:53.201Z,94805.75
2018-08-27T17:49:19.581Z,94799.69
2018-08-27T17:51:45.911Z,94800.38
2018-08-27T17:54:12.244Z,94798.81
2018-08-27T17:56:38.675Z,94803.66
2018-08-27T17:59:05.036Z,94801.48
2018-08-27T18:01:31.423Z,94811.08
2018-08-27T18:03:57.843Z,94811.83
2018-08-27T18:06:24.168Z,94816.50
2018-08-27T18:08:50.503Z,94826.19
2018-08-27T18:11:16.884Z,94827.48
2018-08-27T18:13:43.215Z,94823.85
2018-08-27T18:16:09.611Z,94827.89
2018-08-27T18:18:35.942Z,94822.66
2018-08-27T18:21:02.280Z,94830.41
2018-08-27T18:23:28.630Z,94834.98
2018-08-27T18:25:54.961Z,94838.30
2018-08-27T18:28:21.300Z,94833.28
2018-08-27T18:30:47.681Z,94840.16
2018-08-27T18:33:14.127Z,94841.45
2018-08-27T18:35:40.508Z,94841.35
2018-08-27T18:38:06.857Z,94843.08
2018-08-27T18:40:33.195Z,94843.27
2018-08-27T18:42:59.573Z,94844.08
2018-08-27T18:45:25.966Z,94837.02
2018-08-27T18:47:52.259Z,94840.55
2018-08-27T18:50:18.768Z,94840.40
2018-08-27T18:52:45.120Z,94843.89
2018-08-27T18:55:11.485Z,94844.77
2018-08-27T18:57:37.873Z,94847.70
2018-08-27T19:00:04.223Z,94849.75
2018-08-27T19:02:30.607Z,94842.61
2018-08-27T19:04:56.946Z,94850.08
2018-08-27T19:07:23.280Z,94862.16
2018-08-27T19:09:49.630Z,94858.71
2018-08-27T19:12:15.974Z,94867.20
2018-08-27T19:14:42.340Z,94860.05
2018-08-27T19:17:08.697Z,94867.27
2018-08-27T19:19:35.123Z,94868.83
2018-08-27T19:22:01.591Z,94875.41
2018-08-27T19:24:28.154Z,94872.16
2018-08-27T19:26:54.475Z,94870.42
2018-08-27T19:29:20.802Z,94865.88
2018-08-27T19:31:47.136Z,94867.91
2018-08-27T19:34:13.615Z,94866.09
2018-08-27T19:36:40.059Z,94872.87
2018-08-27T19:39:06.343Z,94875.52
2018-08-27T19:41:32.744Z,94870.35
2018-08-27T19:43:59.090Z,94867.83
2018-08-27T19:46:25.519Z,94863.02
2018-08-27T19:48:51.791Z,94866.75
2018-08-27T19:51:18.189Z,94867.69
2018-08-27T19:53:44.512Z,94869.73
2018-08-27T19:56:10.914Z,94871.09
2018-08-27T19:58:37.252Z,94873.94
2018-08-27T20:01:03.681Z,94872.13
2018-08-27T20:03:30.107Z,94874.62
2018-08-27T20:05:56.460Z,94878.23
2018-08-27T20:08:22.849Z,94877.35
2018-08-27T20:10:49.174Z,94879.44
2018-08-27T20:13:15.540Z,94885.95
2018-08-27T20:15:41.879Z,94892.20
2018-08-27T20:18:08.208Z,94895.32
2018-08-27T20:20:34.561Z,94904.36
2018-08-27T20:23:00.900Z,94916.33
2018-08-27T20:25:27.232Z,94920.27
2018-08-27T20:27:53.621Z,94915.13
2018-08-27T20:30:19.994Z,94908.14
2018-08-27T20:32:46.320Z,94911.88
2018-08-27T20:35:12.824Z,94923.34
2018-08-27T20:37:39.156Z,94926.81
2018-08-27T20:40:05.658Z,94925.69
2018-08-27T20:42:32.012Z,94928.56
2018-08-27T20:44:58.367Z,94938.48
2018-08-27T20:47:24.771Z,94943.36
2018-08-27T20:49:51.185Z,94945.64
2018-08-27T20:52:17.643Z,94952.38
2018-08-27T20:54:43.976Z,94957.34
2018-08-27T20:57:10.436Z,94965.55
2018-08-27T20:59:36.717Z,94966.89
2018-08-27T21:02:03.051Z,94973.30
2018-08-27T21:04:29.443Z,94971.39
2018-08-27T21:06:55.773Z,94966.96
2018-08-27T21:09:22.103Z,94971.86
2018-08-27T21:11:48.419Z,94976.66
2018-08-27T21:14:14.757Z,94976.81
2018-08-27T21:16:41.168Z,94965.71
2018-08-27T21:19:07.515Z,94957.00
2018-08-27T21:21:33.852Z,94959.42
2018-08-27T21:24:00.220Z,94957.72
2018-08-27T21:26:26.548Z,94956.95
2018-08-27T21:28:52.873Z,94960.45
2018-08-27T21:31:19.264Z,94947.91
2018-08-27T21:33:45.566Z,94957.56
2018-08-27T21:36:11.894Z,94961.27
2018-08-27T21:38:38.268Z,94961.27
2018-08-27T21:41:04.618Z,94965.30
2018-08-27T21:43:30.951Z,94963.76
2018-08-27T21:45:57.271Z,94958.89
2018-08-27T21:48:23.626Z,94953.95
2018-08-27T21:50:49.993Z,94968.51
2018-08-27T21:53:16.487Z,94969.95
2018-08-27T21:55:42.825Z,94967.62
2018-08-27T21:58:09.282Z,94965.05
2018-08-27T22:00:35.632Z,94963.13
2018-08-27T22:03:01.976Z,94968.64
2018-08-27T22:05:28.315Z,94963.08
2018-08-27T22:07:54.649Z,94960.86
2018-08-27T22:10:20.988Z,94960.44
2018-08-27T22:12:47.311Z,94957.97
2018-08-27T22:15:13.643Z,94959.87
2018-08-27T22:17:40.037Z,94959.41
2018-08-27T22:20:06.513Z,94961.69
2018-08-27T22:22:32.845Z,94965.09
2018-08-27T22:24:59.214Z,94960.75
2018-08-27T22:27:25.607Z,94949.53
2018-08-27T22:29:51.963Z,94949.26
2018-08-27T22:32:18.295Z,94948.94
2018-08-27T22:34:44.630Z,94943.27
2018-08-27T22:37:10.966Z,94947.70
2018-08-27T22:39:37.297Z,94950.12
2018-08-27T22:42:03.640Z,94949.56
2018-08-27T22:44:29.990Z,94945.38
2018-08-27T22:46:56.371Z,94947.04
2018-08-27T22:49:22.692Z,94944.77
2018-08-27T22:51:49.057Z,94947.74
2018-08-27T22:54:15.388Z,94950.54
2018-08-27T22:56:41.748Z,94957.38
2018-08-27T22:59:08.110Z,94962.45
2018-08-27T23:01:34.483Z,94948.52
2018-08-27T23:04:00.837Z,94952.95
2018-08-27T23:06:27.305Z,94955.22
2018-08-27T23:08:53.635Z,94955.57
2018-08-27T23:11:19.966Z,94958.20
2018-08-27T23:13:46.299Z,94950.61
2018-08-27T23:16:12.627Z,94949.43
2018-08-27T23:18:38.953Z,94948.61
2018-08-27T23:21:05.295Z,94943.59
2018-08-27T23:23:31.661Z,94950.77
2018-08-27T23:25:57.989Z,94953.69
2018-08-27T23:28:24.318Z,94952.61
2018-08-27T23:30:50.669Z,94952.47
2018-08-27T23:33:17.000Z,94954.07
2018-08-27T23:35:43.376Z,94952.99
2018-08-27T23:38:09.713Z,94953.08
2018-08-27T23:40:36.065Z,94944.00
2018-08-27T23:43:02.400Z,94947.81
2018-08-27T23:45:28.778Z,94945.90
2018-08-27T23:47:55.182Z,94945.48
2018-08-27T23:50:21.499Z,94950.23
2018-08-27T23:52:47.832Z,94953.11
2018-08-27T23:55:14.192Z,94955.70
2018-08-27T23:57:40.532Z,94950.54
